Time,TemperatureF,DewpointF,PressureIn,WindDirection,WindDirectionDegrees,WindSpeedMPH,WindSpeedGustMPH,Humidity,HourlyPrecipIn,Conditions,Clouds,dailyrainin,SoftwareType,DateUTC
2013-03-08 00:01:00,33.9,33.1,30.16,NE,36,0.0,1.0,97,0.00,,,0.05,Wunderground v.1.15,2013-03-08 08:01:00,
2013-03-08 00:07:00,33.9,33.1,30.16,NE,36,0.0,1.0,97,0.00,,,0.00,Wunderground v.1.15,2013-03-08 08:07:00,
2013-03-08 00:12:00,33.9,33.1,30.16,NE,36,0.0,0.0,97,0.00,,,0.00,Wunderground v.1.15,2013-03-08 08:12:00,
2013-03-08 00:17:00,33.9,33.1,30.16,NE,36,1.0,1.0,97,0.00,,,0.00,Wunderground v.1.15,2013-03-08 08:17:00,
2013-03-08 00:23:00,33.7,32.9,30.16,NE,36,2.0,2.0,97,0.00,,,0.00,Wunderground v.1.15,2013-03-08 08:23:00,
2013-03-08 00:29:00,33.3,32.5,30.15,NE,36,3.0,3.0,97,0.00,,,0.00,Wunderground v.1.15,2013-03-08 08:29:00,
2013-03-08 00:35:00,33.0,32.2,30.16,NE,36,2.0,3.0,97,0.00,,,0.00,Wunderground v.1.15,2013-03-08 08:35:00,
2013-03-08 00:40:00,32.4,31.4,30.16,NE,36,0.0,2.0,96,0.00,,,0.00,Wunderground v.1.15,2013-03-08 08:40:00,
2013-03-08 00:46:00,32.5,31.7,30.16,NE,36,2.0,3.0,97,0.00,,,0.00,Wunderground v.1.15,2013-03-08 08:46:00,
2013-03-08 00:52:00,32.7,32.2,30.16,NE,36,2.0,2.0,98,0.00,,,0.00,Wunderground v.1.15,2013-03-08 08:52:00,
2013-03-08 00:57:00,32.5,31.7,30.16,NNE,13,0.0,3.0,97,0.00,,,0.00,Wunderground v.1.15,2013-03-08 08:57:00,
2013-03-08 01:03:00,32.2,31.4,30.16,NNE,13,1.0,1.0,97,0.00,,,0.00,Wunderground v.1.15,2013-03-08 09:03:00,
2013-03-08 01:08:00,32.1,31.3,30.16,NNE,13,1.0,2.0,97,0.00,,,0.00,Wunderground v.1.15,2013-03-08 09:08:00,
2013-03-08 01:14:00,32.1,31.6,30.16,NNE,13,1.0,2.0,98,0.00,,,0.00,Wunderground v.1.15,2013-03-08 09:14:00,
2013-03-08 01:20:00,32.1,31.6,30.16,NNE,13,3.0,3.0,98,0.00,,,0.00,Wunderground v.1.15,2013-03-08 09:20:00,
2013-03-08 01:25:00,32.0,31.5,30.16,NNE,13,2.0,3.0,98,0.00,,,0.00,Wunderground v.1.15,2013-03-08 09:25:00,
2013-03-08 01:31:00,31.2,30.4,30.16,NNE,13,2.0,3.0,97,0.00,,,0.00,Wunderground v.1.15,2013-03-08 09:31:00,
2013-03-08 01:37:00,30.5,29.8,30.16,NNE,13,2.0,3.0,97,0.00,,,0.00,Wunderground v.1.15,2013-03-08 09:37:00,
2013-03-08 01:43:00,30.5,29.8,30.16,NNE,13,1.0,2.0,97,0.00,,,0.00,Wunderground v.1.15,2013-03-08 09:43:00,
2013-03-08 01:48:00,29.9,29.2,30.16,NNE,13,3.0,3.0,97,0.00,,,0.00,Wunderground v.1.15,2013-03-08 09:48:00,
2013-03-08 01:54:00,29.4,28.7,30.16,NNE,13,3.0,3.0,97,0.00,,,0.00,Wunderground v.1.15,2013-03-08 09:54:00,
2013-03-08 02:00:00,29.9,29.4,30.16,NNE,15,2.0,3.0,98,0.00,,,0.00,Wunderground v.1.15,2013-03-08 10:00:00,
2013-03-08 02:05:00,30.3,29.8,30.16,North,355,4.0,5.0,98,0.00,,,0.00,Wunderground v.1.15,2013-03-08 10:05:00,
2013-03-08 02:10:00,30.5,30.0,30.16,North,355,4.0,4.0,98,0.00,,,0.00,Wunderground v.1.15,2013-03-08 10:10:00,
2013-03-08 02:15:00,30.5,30.0,30.15,North,360,0.0,4.0,98,0.00,,,0.00,Wunderground v.1.15,2013-03-08 10:15:00,
2013-03-08 02:20:00,30.4,29.9,30.15,North,360,1.0,2.0,98,0.00,,,0.00,Wunderground v.1.15,2013-03-08 10:20:00,
2013-03-08 02:25:00,30.5,30.0,30.15,North,360,4.0,4.0,98,0.00,,,0.00,Wunderground v.1.15,2013-03-08 10:25:00,
2013-03-08 02:30:00,30.6,30.1,30.16,North,360,3.0,4.0,98,0.00,,,0.00,Wunderground v.1.15,2013-03-08 10:30:00,
2013-03-08 02:35:00,30.6,30.1,30.15,North,360,3.0,5.0,98,0.00,,,0.00,Wunderground v.1.15,2013-03-08 10:35:00,
2013-03-08 02:40:00,30.5,30.0,30.15,North,360,3.0,3.0,98,0.00,,,0.00,Wunderground v.1.15,2013-03-08 10:40:00,
2013-03-08 02:45:00,30.4,29.9,30.15,North,360,3.0,5.0,98,0.00,,,0.00,Wunderground v.1.15,2013-03-08 10:45:00,
2013-03-08 02:50:00,30.2,29.7,30.15,North,360,2.0,3.0,98,0.00,,,0.00,Wunderground v.1.15,2013-03-08 10:50:00,
2013-03-08 02:55:00,30.2,29.7,30.15,North,360,0.0,4.0,98,0.00,,,0.00,Wunderground v.1.15,2013-03-08 10:55:00,
2013-03-08 03:00:00,30.1,29.6,30.15,North,360,3.0,3.0,98,0.00,,,0.00,Wunderground v.1.15,2013-03-08 11:00:00,
2013-03-08 03:05:00,29.9,29.4,30.15,North,360,2.0,4.0,98,0.00,,,0.00,Wunderground v.1.15,2013-03-08 11:05:00,
2013-03-08 03:10:00,29.6,29.1,30.15,North,360,2.0,3.0,98,0.00,,,0.00,Wunderground v.1.15,2013-03-08 11:10:00,
2013-03-08 03:15:00,29.4,28.9,30.15,North,360,0.0,3.0,98,0.00,,,0.00,Wunderground v.1.15,2013-03-08 11:15:00,
2013-03-08 03:21:00,29.2,28.7,30.15,North,360,1.0,2.0,98,0.00,,,0.00,Wunderground v.1.15,2013-03-08 11:21:00,
2013-03-08 03:26:00,29.1,28.6,30.15,North,360,2.0,3.0,98,0.00,,,0.00,Wunderground v.1.15,2013-03-08 11:26:00,
2013-03-08 03:31:00,29.0,28.5,30.16,North,360,3.0,5.0,98,0.00,,,0.00,Wunderground v.1.15,2013-03-08 11:31:00,
2013-03-08 03:36:00,28.9,28.4,30.16,North,360,3.0,5.0,98,0.00,,,0.00,Wunderground v.1.15,2013-03-08 11:36:00,
2013-03-08 03:41:00,28.8,28.3,30.16,North,360,0.0,3.0,98,0.00,,,0.00,Wunderground v.1.15,2013-03-08 11:41:00,
2013-03-08 03:46:00,28.8,28.3,30.16,NNE,22,4.0,5.0,98,0.00,,,0.00,Wunderground v.1.15,2013-03-08 11:46:00,
2013-03-08 03:51:00,28.8,28.3,30.16,North,5,4.0,5.0,98,0.00,,,0.00,Wunderground v.1.15,2013-03-08 11:51:00,
2013-03-08 03:56:00,28.6,28.1,30.16,North,5,4.0,5.0,98,0.00,,,0.00,Wunderground v.1.15,2013-03-08 11:56:00,
2013-03-08 04:01:00,28.5,28.0,30.15,North,5,6.0,7.0,98,0.00,,,0.00,Wunderground v.1.15,2013-03-08 12:01:00,
2013-03-08 04:06:00,28.4,27.9,30.16,NNE,17,3.0,7.0,98,0.00,,,0.00,Wunderground v.1.15,2013-03-08 12:06:00,
2013-03-08 04:11:00,28.3,27.8,30.15,NNE,30,2.0,5.0,98,0.00,,,0.00,Wunderground v.1.15,2013-03-08 12:11:00,
2013-03-08 04:16:00,28.2,27.7,30.15,NNE,30,6.0,6.0,98,0.00,,,0.00,Wunderground v.1.15,2013-03-08 12:16:00,
2013-03-08 04:21:00,28.1,27.6,30.15,North,5,4.0,5.0,98,0.00,,,0.00,Wunderground v.1.15,2013-03-08 12:21:00,
2013-03-08 04:26:00,28.1,27.6,30.15,NNE,22,6.0,7.0,98,0.00,,,0.00,Wunderground v.1.15,2013-03-08 12:26:00,
2013-03-08 04:31:00,28.0,27.5,30.15,North,9,5.0,6.0,98,0.00,,,0.00,Wunderground v.1.15,2013-03-08 12:31:00,
2013-03-08 04:36:00,28.0,27.5,30.15,NNE,26,5.0,6.0,98,0.00,,,0.00,Wunderground v.1.15,2013-03-08 12:36:00,
2013-03-08 04:41:00,28.0,27.5,30.15,NNE,20,3.0,5.0,98,0.00,,,0.00,Wunderground v.1.15,2013-03-08 12:41:00,
2013-03-08 04:46:00,28.1,27.6,30.15,NNE,26,4.0,6.0,98,0.00,,,0.00,Wunderground v.1.15,2013-03-08 12:46:00,
2013-03-08 04:51:00,28.1,27.6,30.15,NNE,33,4.0,6.0,98,0.00,,,0.00,Wunderground v.1.15,2013-03-08 12:51:00,
2013-03-08 04:56:00,28.1,27.6,30.16,NE,40,7.0,7.0,98,0.00,,,0.00,Wunderground v.1.15,2013-03-08 12:56:00,
2013-03-08 05:01:00,28.2,27.7,30.16,NNE,15,4.0,6.0,98,0.00,,,0.00,Wunderground v.1.15,2013-03-08 13:01:00,
2013-03-08 05:06:00,28.3,27.8,30.15,NNE,17,3.0,6.0,98,0.00,,,0.00,Wunderground v.1.15,2013-03-08 13:06:00,
2013-03-08 05:11:00,28.4,27.9,30.16,NNE,18,3.0,4.0,98,0.00,,,0.00,Wunderground v.1.15,2013-03-08 13:11:00,
2013-03-08 05:16:00,28.5,28.0,30.16,NNE,21,4.0,5.0,98,0.00,,,0.00,Wunderground v.1.15,2013-03-08 13:16:00,
2013-03-08 05:21:00,28.4,27.9,30.16,NNE,21,0.0,3.0,98,0.00,,,0.00,Wunderground v.1.15,2013-03-08 13:21:00,
2013-03-08 05:26:00,28.5,28.0,30.16,NNE,21,0.0,3.0,98,0.00,,,0.00,Wunderground v.1.15,2013-03-08 13:26:00,
2013-03-08 05:32:00,28.4,27.9,30.16,NNE,21,0.0,4.0,98,0.00,,,0.00,Wunderground v.1.15,2013-03-08 13:32:00,
2013-03-08 05:37:00,28.4,27.9,30.16,NNE,21,0.0,5.0,98,0.00,,,0.00,Wunderground v.1.15,2013-03-08 13:37:00,
2013-03-08 05:42:00,28.4,27.9,30.16,NNE,21,3.0,3.0,98,0.00,,,0.00,Wunderground v.1.15,2013-03-08 13:42:00,
2013-03-08 05:47:00,28.3,27.8,30.16,NNE,21,0.0,4.0,98,0.00,,,0.00,Wunderground v.1.15,2013-03-08 13:47:00,
2013-03-08 05:52:00,28.3,27.8,30.16,NNE,21,3.0,5.0,98,0.00,,,0.00,Wunderground v.1.15,2013-03-08 13:52:00,
2013-03-08 05:57:00,28.3,27.8,30.16,NNE,22,3.0,6.0,98,0.00,,,0.00,Wunderground v.1.15,2013-03-08 13:57:00,
2013-03-08 06:02:00,28.2,27.7,30.16,NNE,15,3.0,4.0,98,0.00,,,0.00,Wunderground v.1.15,2013-03-08 14:02:00,
2013-03-08 06:07:00,28.2,27.7,30.16,NNE,28,0.0,4.0,98,0.00,,,0.00,Wunderground v.1.15,2013-03-08 14:07:00,
2013-03-08 06:12:00,28.1,27.6,30.16,NNE,28,0.0,2.0,98,0.00,,,0.00,Wunderground v.1.15,2013-03-08 14:12:00,
2013-03-08 06:17:00,28.1,27.6,30.16,NNE,28,0.0,4.0,98,0.00,,,0.00,Wunderground v.1.15,2013-03-08 14:17:00,
2013-03-08 06:22:00,28.2,27.7,30.16,NNE,28,0.0,1.0,98,0.00,,,0.00,Wunderground v.1.15,2013-03-08 14:22:00,
2013-03-08 06:27:00,28.2,27.7,30.16,NNE,28,4.0,5.0,98,0.00,,,0.00,Wunderground v.1.15,2013-03-08 14:27:00,
2013-03-08 06:32:00,28.1,27.4,30.16,NNE,28,0.0,5.0,97,0.00,,,0.00,Wunderground v.1.15,2013-03-08 14:32:00,
2013-03-08 06:37:00,28.0,27.3,30.16,NNE,23,0.0,5.0,97,0.00,,,0.00,Wunderground v.1.15,2013-03-08 14:37:00,
2013-03-08 06:42:00,28.1,27.6,30.16,NNE,22,0.0,2.0,98,0.00,,,0.00,Wunderground v.1.15,2013-03-08 14:42:00,
2013-03-08 06:47:00,28.2,27.7,30.16,NNE,22,0.0,2.0,98,0.00,,,0.00,Wunderground v.1.15,2013-03-08 14:47:00,
2013-03-08 06:52:00,28.3,27.8,30.16,NNE,22,0.0,0.0,98,0.00,,,0.00,Wunderground v.1.15,2013-03-08 14:52:00,
2013-03-08 06:57:00,28.3,27.8,30.16,NNE,24,0.0,0.0,98,0.00,,,0.00,Wunderground v.1.15,2013-03-08 14:57:00,
2013-03-08 07:02:00,28.3,27.8,30.16,NNE,22,0.0,0.0,98,0.00,,,0.00,Wunderground v.1.15,2013-03-08 15:02:00,
2013-03-08 07:07:00,28.3,27.8,30.17,NNE,22,0.0,0.0,98,0.00,,,0.00,Wunderground v.1.15,2013-03-08 15:07:00,
2013-03-08 07:12:00,28.5,28.0,30.17,NNE,22,0.0,0.0,98,0.00,,,0.00,Wunderground v.1.15,2013-03-08 15:12:00,
2013-03-08 07:17:00,28.6,28.1,30.17,NNE,22,0.0,0.0,98,0.00,,,0.00,Wunderground v.1.15,2013-03-08 15:17:00,
2013-03-08 07:22:00,28.7,28.2,30.17,NNE,22,0.0,0.0,98,0.00,,,0.00,Wunderground v.1.15,2013-03-08 15:22:00,
2013-03-08 07:27:00,28.8,28.3,30.17,NNE,22,0.0,0.0,98,0.00,,,0.00,Wunderground v.1.15,2013-03-08 15:27:00,
2013-03-08 07:32:00,28.8,28.3,30.17,NNE,22,0.0,0.0,98,0.00,,,0.00,Wunderground v.1.15,2013-03-08 15:32:00,
2013-03-08 07:37:00,28.8,28.3,30.17,NNE,22,0.0,0.0,98,0.00,,,0.00,Wunderground v.1.15,2013-03-08 15:37:00,
2013-03-08 07:42:00,28.9,28.4,30.17,NNE,22,0.0,0.0,98,0.00,,,0.00,Wunderground v.1.15,2013-03-08 15:42:00,
2013-03-08 07:47:00,29.0,28.5,30.17,NNE,22,0.0,0.0,98,0.00,,,0.00,Wunderground v.1.15,2013-03-08 15:47:00,
2013-03-08 07:52:00,29.0,28.5,30.17,NNE,22,0.0,0.0,98,0.00,,,0.00,Wunderground v.1.15,2013-03-08 15:52:00,
2013-03-08 07:57:00,29.2,28.7,30.18,NNE,22,0.0,0.0,98,0.00,,,0.00,Wunderground v.1.15,2013-03-08 15:57:00,
2013-03-08 08:02:00,29.2,28.7,30.18,NNE,22,0.0,0.0,98,0.00,,,0.00,Wunderground v.1.15,2013-03-08 16:02:00,
2013-03-08 08:07:00,29.2,28.7,30.18,NNE,22,0.0,0.0,98,0.00,,,0.00,Wunderground v.1.15,2013-03-08 16:07:00,
2013-03-08 08:12:00,29.3,28.8,30.17,NNE,22,0.0,0.0,98,0.00,,,0.00,Wunderground v.1.15,2013-03-08 16:12:00,
2013-03-08 08:17:00,29.4,28.9,30.17,NNE,22,0.0,0.0,98,0.00,,,0.00,Wunderground v.1.15,2013-03-08 16:17:00,
2013-03-08 08:22:00,29.6,29.1,30.17,NNE,22,0.0,0.0,98,0.00,,,0.00,Wunderground v.1.15,2013-03-08 16:22:00,
2013-03-08 08:27:00,29.6,29.1,30.18,NNE,21,0.0,0.0,98,0.00,,,0.00,Wunderground v.1.15,2013-03-08 16:27:00,
2013-03-08 08:32:00,29.5,29.0,30.18,NNE,21,0.0,0.0,98,0.00,,,0.00,Wunderground v.1.15,2013-03-08 16:32:00,
2013-03-08 08:37:00,29.6,29.1,30.18,NNE,21,0.0,0.0,98,0.00,,,0.00,Wunderground v.1.15,2013-03-08 16:37:00,
2013-03-08 08:43:00,29.6,29.1,30.18,NNE,21,0.0,0.0,98,0.00,,,0.00,Wunderground v.1.15,2013-03-08 16:43:00,
2013-03-08 08:48:00,29.6,29.1,30.18,NNE,21,0.0,0.0,98,0.00,,,0.00,Wunderground v.1.15,2013-03-08 16:48:00,
2013-03-08 08:53:00,29.7,29.2,30.18,NNE,21,0.0,0.0,98,0.00,,,0.00,Wunderground v.1.15,2013-03-08 16:53:00,
2013-03-08 08:58:00,29.8,29.3,30.18,NNE,21,0.0,0.0,98,0.00,,,0.00,Wunderground v.1.15,2013-03-08 16:58:00,
2013-03-08 09:03:00,29.8,29.3,30.18,NNE,21,0.0,0.0,98,0.00,,,0.00,Wunderground v.1.15,2013-03-08 17:03:00,
2013-03-08 09:08:00,29.6,29.1,30.18,NNE,21,0.0,0.0,98,0.00,,,0.00,Wunderground v.1.15,2013-03-08 17:08:00,
2013-03-08 09:13:00,29.7,29.2,30.18,NNE,21,0.0,0.0,98,0.00,,,0.00,Wunderground v.1.15,2013-03-08 17:13:00,
2013-03-08 09:18:00,29.8,29.3,30.18,NNE,21,0.0,0.0,98,0.00,,,0.00,Wunderground v.1.15,2013-03-08 17:18:00,
2013-03-08 09:23:00,29.9,29.4,30.18,NNE,21,0.0,0.0,98,0.00,,,0.00,Wunderground v.1.15,2013-03-08 17:23:00,
2013-03-08 09:28:00,29.9,29.4,30.18,NNE,21,0.0,0.0,98,0.00,,,0.01,Wunderground v.1.15,2013-03-08 17:28:00,
2013-03-08 09:33:00,30.1,29.6,30.18,NNE,21,0.0,0.0,98,0.00,,,0.01,Wunderground v.1.15,2013-03-08 17:33:00,
2013-03-08 09:39:00,30.1,29.6,30.18,NNE,21,0.0,0.0,98,0.00,,,0.01,Wunderground v.1.15,2013-03-08 17:39:00,
2013-03-08 09:44:00,30.2,29.7,30.18,NNE,21,0.0,0.0,98,0.00,,,0.01,Wunderground v.1.15,2013-03-08 17:44:00,
2013-03-08 09:49:00,30.3,29.8,30.19,NNE,21,0.0,0.0,98,0.00,,,0.01,Wunderground v.1.15,2013-03-08 17:49:00,
2013-03-08 09:54:00,30.4,29.9,30.19,NNE,21,0.0,0.0,98,0.00,,,0.01,Wunderground v.1.15,2013-03-08 17:54:00,
2013-03-08 09:59:00,30.5,30.0,30.19,NNE,21,0.0,0.0,98,0.00,,,0.01,Wunderground v.1.15,2013-03-08 17:59:00,
2013-03-08 10:04:00,30.6,30.1,30.19,NNE,21,0.0,0.0,98,0.00,,,0.01,Wunderground v.1.15,2013-03-08 18:04:00,
2013-03-08 10:09:00,30.6,30.1,30.19,NNE,21,0.0,0.0,98,0.00,,,0.01,Wunderground v.1.15,2013-03-08 18:09:00,
2013-03-08 10:14:00,30.6,30.1,30.19,NNE,21,0.0,0.0,98,0.00,,,0.01,Wunderground v.1.15,2013-03-08 18:14:00,
2013-03-08 10:19:00,30.7,30.2,30.19,NNE,21,0.0,0.0,98,0.00,,,0.01,Wunderground v.1.15,2013-03-08 18:19:00,
2013-03-08 10:24:00,30.9,30.7,30.19,NNE,21,0.0,0.0,99,0.00,,,0.01,Wunderground v.1.15,2013-03-08 18:24:00,
2013-03-08 10:29:00,31.0,30.8,30.19,NNE,21,0.0,0.0,99,0.00,,,0.01,Wunderground v.1.15,2013-03-08 18:29:00,
2013-03-08 10:34:00,30.8,30.3,30.18,NNE,21,0.0,0.0,98,0.00,,,0.01,Wunderground v.1.15,2013-03-08 18:34:00,
2013-03-08 10:39:00,30.9,30.7,30.19,NNE,21,0.0,0.0,99,0.00,,,0.01,Wunderground v.1.15,2013-03-08 18:39:00,
2013-03-08 10:44:00,30.8,30.6,30.19,NNE,21,0.0,0.0,99,0.00,,,0.01,Wunderground v.1.15,2013-03-08 18:44:00,
2013-03-08 10:49:00,30.9,30.7,30.19,NNE,21,0.0,0.0,99,0.00,,,0.01,Wunderground v.1.15,2013-03-08 18:49:00,
2013-03-08 10:54:00,31.0,30.8,30.19,NNE,21,0.0,0.0,99,0.00,,,0.01,Wunderground v.1.15,2013-03-08 18:54:00,
2013-03-08 10:59:00,31.0,30.8,30.19,NNE,21,0.0,0.0,99,0.00,,,0.01,Wunderground v.1.15,2013-03-08 18:59:00,
2013-03-08 11:04:00,31.2,30.7,30.19,NNE,21,0.0,0.0,98,0.00,,,0.01,Wunderground v.1.15,2013-03-08 19:04:00,
2013-03-08 11:09:00,31.3,31.1,30.18,NNE,21,0.0,0.0,99,0.00,,,0.01,Wunderground v.1.15,2013-03-08 19:09:00,
2013-03-08 11:14:00,31.2,30.7,30.19,NNE,21,0.0,0.0,98,0.00,,,0.01,Wunderground v.1.15,2013-03-08 19:14:00,
2013-03-08 11:19:00,31.2,31.0,30.18,NNE,21,0.0,0.0,99,0.00,,,0.01,Wunderground v.1.15,2013-03-08 19:19:00,
2013-03-08 11:24:00,31.4,31.2,30.18,NNE,21,0.0,0.0,99,0.00,,,0.01,Wunderground v.1.15,2013-03-08 19:24:00,
2013-03-08 11:29:00,31.5,31.3,30.18,NNE,21,0.0,0.0,99,0.00,,,0.01,Wunderground v.1.15,2013-03-08 19:29:00,
2013-03-08 11:35:00,31.5,31.3,30.18,NNE,21,0.0,0.0,99,0.00,,,0.01,Wunderground v.1.15,2013-03-08 19:35:00,
2013-03-08 11:40:00,31.6,31.4,30.18,NNE,21,0.0,0.0,99,0.00,,,0.01,Wunderground v.1.15,2013-03-08 19:40:00,
2013-03-08 11:45:00,31.6,31.4,30.18,NNE,21,0.0,0.0,99,0.00,,,0.01,Wunderground v.1.15,2013-03-08 19:45:00,
2013-03-08 11:50:00,31.7,31.5,30.18,NNE,21,0.0,0.0,99,0.00,,,0.01,Wunderground v.1.15,2013-03-08 19:50:00,
2013-03-08 11:55:00,31.8,31.6,30.18,NNE,21,0.0,0.0,99,0.00,,,0.01,Wunderground v.1.15,2013-03-08 19:55:00,
2013-03-08 12:00:00,31.8,31.6,30.18,NNE,21,0.0,0.0,99,0.00,,,0.01,Wunderground v.1.15,2013-03-08 20:00:00,
2013-03-08 12:05:00,31.9,31.7,30.18,NNE,21,0.0,0.0,99,0.00,,,0.01,Wunderground v.1.15,2013-03-08 20:05:00,
2013-03-08 12:10:00,31.9,31.7,30.18,NNE,24,0.0,0.0,99,0.00,,,0.01,Wunderground v.1.15,2013-03-08 20:10:00,
2013-03-08 12:15:00,31.9,31.7,30.18,NNE,24,0.0,0.0,99,0.00,,,0.01,Wunderground v.1.15,2013-03-08 20:15:00,
2013-03-08 12:20:00,32.0,31.8,30.17,NNE,24,0.0,0.0,99,0.00,,,0.01,Wunderground v.1.15,2013-03-08 20:20:00,
2013-03-08 12:25:00,32.0,31.8,30.17,NNE,24,0.0,0.0,99,0.00,,,0.01,Wunderground v.1.15,2013-03-08 20:25:00,
2013-03-08 12:30:00,32.0,31.8,30.17,NNE,24,0.0,0.0,99,0.00,,,0.01,Wunderground v.1.15,2013-03-08 20:30:00,
2013-03-08 12:35:00,32.1,31.9,30.17,NNE,24,0.0,0.0,99,0.00,,,0.01,Wunderground v.1.15,2013-03-08 20:35:00,
2013-03-08 12:40:00,32.2,32.0,30.17,NW,324,0.0,0.0,99,0.00,,,0.01,Wunderground v.1.15,2013-03-08 20:40:00,
2013-03-08 12:45:00,32.4,32.2,30.17,NNW,332,0.0,0.0,99,0.00,,,0.01,Wunderground v.1.15,2013-03-08 20:45:00,
2013-03-08 12:50:00,32.4,32.2,30.17,NE,40,5.0,5.0,99,0.00,,,0.01,Wunderground v.1.15,2013-03-08 20:50:00,
2013-03-08 12:55:00,32.4,32.2,30.17,North,360,4.0,6.0,99,0.00,,,0.01,Wunderground v.1.15,2013-03-08 20:55:00,
2013-03-08 13:00:00,32.5,32.3,30.17,NNW,340,2.0,4.0,99,0.00,,,0.01,Wunderground v.1.15,2013-03-08 21:00:00,
2013-03-08 13:05:00,32.5,32.3,30.17,North,5,2.0,5.0,99,0.00,,,0.01,Wunderground v.1.15,2013-03-08 21:05:00,
2013-03-08 13:10:00,32.7,32.5,30.17,North,351,5.0,6.0,99,0.00,,,0.01,Wunderground v.1.15,2013-03-08 21:10:00,
2013-03-08 13:16:00,32.6,32.4,30.17,North,351,4.0,6.0,99,0.00,,,0.01,Wunderground v.1.15,2013-03-08 21:16:00,
2013-03-08 13:21:00,32.8,32.6,30.17,North,355,4.0,5.0,99,0.00,,,0.01,Wunderground v.1.15,2013-03-08 21:21:00,
2013-03-08 13:26:00,32.8,32.6,30.17,NE,38,4.0,5.0,99,0.00,,,0.01,Wunderground v.1.15,2013-03-08 21:26:00,
2013-03-08 13:31:00,32.9,32.7,30.17,NNE,32,3.0,4.0,99,0.00,,,0.01,Wunderground v.1.15,2013-03-08 21:31:00,
2013-03-08 13:36:00,32.8,32.6,30.17,NNE,20,2.0,5.0,99,0.00,,,0.01,Wunderground v.1.15,2013-03-08 21:36:00,
2013-03-08 13:41:00,32.9,32.7,30.17,North,11,5.0,5.0,99,0.00,,,0.01,Wunderground v.1.15,2013-03-08 21:41:00,
2013-03-08 13:46:00,33.1,32.9,30.17,NW,313,4.0,5.0,99,0.00,,,0.01,Wunderground v.1.15,2013-03-08 21:46:00,
2013-03-08 13:51:00,33.4,33.1,30.17,WNW,300,5.0,6.0,99,0.00,,,0.01,Wunderground v.1.15,2013-03-08 21:51:00,
2013-03-08 13:56:00,33.3,33.0,30.17,North,360,0.0,8.0,99,0.00,,,0.01,Wunderground v.1.15,2013-03-08 21:56:00,
2013-03-08 14:01:00,33.3,33.0,30.17,NNE,22,2.0,4.0,99,0.00,,,0.01,Wunderground v.1.15,2013-03-08 22:01:00,
2013-03-08 14:06:00,33.3,33.0,30.17,NNW,344,0.0,5.0,99,0.00,,,0.01,Wunderground v.1.15,2013-03-08 22:06:00,
2013-03-08 14:11:00,33.7,33.4,30.17,NNE,27,3.0,7.0,99,0.00,,,0.01,Wunderground v.1.15,2013-03-08 22:11:00,
2013-03-08 14:16:00,33.7,33.4,30.17,NE,50,2.0,7.0,99,0.00,,,0.01,Wunderground v.1.15,2013-03-08 22:16:00,
2013-03-08 14:21:00,33.6,33.3,30.17,North,5,2.0,4.0,99,0.00,,,0.01,Wunderground v.1.15,2013-03-08 22:21:00,
2013-03-08 14:26:00,33.9,33.6,30.17,NE,42,5.0,5.0,99,0.00,,,0.01,Wunderground v.1.15,2013-03-08 22:26:00,
2013-03-08 14:31:00,33.9,33.6,30.17,NNE,25,0.0,2.0,99,0.00,,,0.01,Wunderground v.1.15,2013-03-08 22:31:00,
2013-03-08 14:36:00,34.2,33.9,30.17,NNE,32,4.0,5.0,99,0.00,,,0.01,Wunderground v.1.15,2013-03-08 22:36:00,
2013-03-08 14:41:00,34.1,33.8,30.17,NNE,13,3.0,4.0,99,0.00,,,0.01,Wunderground v.1.15,2013-03-08 22:41:00,
2013-03-08 14:46:00,34.0,33.7,30.17,North,5,3.0,4.0,99,0.00,,,0.01,Wunderground v.1.15,2013-03-08 22:46:00,
2013-03-08 14:51:00,34.2,33.9,30.17,WNW,300,0.0,3.0,99,0.00,,,0.01,Wunderground v.1.15,2013-03-08 22:51:00,
2013-03-08 14:56:00,35.0,34.7,30.17,WNW,300,0.0,3.0,99,0.00,,,0.01,Wunderground v.1.15,2013-03-08 22:56:00,
2013-03-08 15:01:00,34.8,34.5,30.17,NW,306,1.0,3.0,99,0.00,,,0.01,Wunderground v.1.15,2013-03-08 23:01:00,
2013-03-08 15:06:00,34.7,34.4,30.17,NW,306,0.0,3.0,99,0.00,,,0.01,Wunderground v.1.15,2013-03-08 23:06:00,
2013-03-08 15:11:00,35.1,34.8,30.17,NW,306,0.0,1.0,99,0.00,,,0.01,Wunderground v.1.15,2013-03-08 23:11:00,
2013-03-08 15:16:00,35.3,35.0,30.17,NW,306,0.0,2.0,99,0.00,,,0.01,Wunderground v.1.15,2013-03-08 23:16:00,
2013-03-08 15:21:00,35.3,35.0,30.17,NW,304,0.0,3.0,99,0.00,,,0.01,Wunderground v.1.15,2013-03-08 23:21:00,
2013-03-08 15:27:00,35.0,34.7,30.16,NW,304,2.0,3.0,99,0.00,,,0.01,Wunderground v.1.15,2013-03-08 23:27:00,
2013-03-08 15:32:00,35.0,34.7,30.16,SW,215,0.0,3.0,99,0.00,,,0.01,Wunderground v.1.15,2013-03-08 23:32:00,
2013-03-08 15:37:00,35.4,35.1,30.16,SW,215,2.0,4.0,99,0.00,,,0.01,Wunderground v.1.15,2013-03-08 23:37:00,
2013-03-08 15:42:00,35.5,35.2,30.16,SW,215,0.0,3.0,99,0.00,,,0.01,Wunderground v.1.15,2013-03-08 23:42:00,
2013-03-08 15:47:00,35.7,35.4,30.16,SW,215,3.0,5.0,99,0.00,,,0.01,Wunderground v.1.15,2013-03-08 23:47:00,
2013-03-08 15:52:00,36.1,35.8,30.16,SW,215,0.0,2.0,99,0.00,,,0.01,Wunderground v.1.15,2013-03-08 23:52:00,
2013-03-08 15:57:00,36.6,36.3,30.16,SW,215,0.0,2.0,99,0.00,,,0.01,Wunderground v.1.15,2013-03-08 23:57:00,
2013-03-08 16:02:00,37.6,37.3,30.17,SW,215,0.0,0.0,99,0.00,,,0.01,Wunderground v.1.15,2013-03-09 00:02:00,
2013-03-08 16:07:00,37.3,37.0,30.17,SW,215,0.0,3.0,99,0.00,,,0.01,Wunderground v.1.15,2013-03-09 00:07:00,
2013-03-08 16:12:00,37.1,36.8,30.16,SW,215,0.0,1.0,99,0.00,,,0.01,Wunderground v.1.15,2013-03-09 00:12:00,
2013-03-08 16:17:00,37.0,36.7,30.16,SW,215,0.0,1.0,99,0.00,,,0.01,Wunderground v.1.15,2013-03-09 00:17:00,
2013-03-08 16:22:00,36.8,36.5,30.17,SW,216,2.0,3.0,99,0.00,,,0.01,Wunderground v.1.15,2013-03-09 00:22:00,
2013-03-08 16:27:00,36.6,36.3,30.17,NNE,17,3.0,4.0,99,0.00,,,0.01,Wunderground v.1.15,2013-03-09 00:27:00,
2013-03-08 16:32:00,36.6,36.3,30.17,NNE,17,2.0,2.0,99,0.00,,,0.01,Wunderground v.1.15,2013-03-09 00:32:00,
2013-03-08 16:37:00,36.6,36.3,30.17,NNE,17,3.0,3.0,99,0.00,,,0.01,Wunderground v.1.15,2013-03-09 00:37:00,
2013-03-08 16:42:00,36.5,36.2,30.17,NNE,17,1.0,2.0,99,0.00,,,0.01,Wunderground v.1.15,2013-03-09 00:42:00,
2013-03-08 16:47:00,36.4,36.1,30.17,NNE,17,0.0,2.0,99,0.00,,,0.01,Wunderground v.1.15,2013-03-09 00:47:00,
2013-03-08 16:52:00,36.5,36.2,30.16,NNE,17,0.0,2.0,99,0.00,,,0.01,Wunderground v.1.15,2013-03-09 00:52:00,
2013-03-08 16:57:00,36.5,36.2,30.17,NNE,17,0.0,2.0,99,0.00,,,0.01,Wunderground v.1.15,2013-03-09 00:57:00,
2013-03-08 17:02:00,36.6,36.3,30.17,NNE,17,0.0,0.0,99,0.00,,,0.01,Wunderground v.1.15,2013-03-09 01:02:00,
2013-03-08 17:07:00,36.6,36.1,30.16,NNE,17,0.0,0.0,98,0.00,,,0.01,Wunderground v.1.15,2013-03-09 01:07:00,
2013-03-08 17:12:00,36.9,36.6,30.16,NNE,17,0.0,0.0,99,0.00,,,0.01,Wunderground v.1.15,2013-03-09 01:12:00,
2013-03-08 17:17:00,37.1,36.8,30.17,NNE,17,0.0,0.0,99,0.00,,,0.01,Wunderground v.1.15,2013-03-09 01:17:00,
2013-03-08 17:22:00,36.8,36.3,30.17,NNE,17,2.0,3.0,98,0.00,,,0.01,Wunderground v.1.15,2013-03-09 01:22:00,
2013-03-08 17:27:00,36.4,35.9,30.17,NNE,17,0.0,3.0,98,0.00,,,0.01,Wunderground v.1.15,2013-03-09 01:27:00,
2013-03-08 17:32:00,36.2,35.7,30.17,NNE,17,0.0,1.0,98,0.00,,,0.01,Wunderground v.1.15,2013-03-09 01:32:00,
2013-03-08 17:37:00,36.1,35.6,30.17,NNE,17,0.0,1.0,98,0.00,,,0.01,Wunderground v.1.15,2013-03-09 01:37:00,
2013-03-08 17:42:00,36.1,35.6,30.17,NNE,17,0.0,0.0,98,0.00,,,0.01,Wunderground v.1.15,2013-03-09 01:42:00,
2013-03-08 17:47:00,35.9,35.4,30.17,NNE,17,0.0,0.0,98,0.00,,,0.01,Wunderground v.1.15,2013-03-09 01:47:00,
2013-03-08 17:52:00,35.9,35.4,30.17,NNE,17,0.0,0.0,98,0.00,,,0.01,Wunderground v.1.15,2013-03-09 01:52:00,
2013-03-08 17:57:00,35.7,35.2,30.17,ESE,109,1.0,2.0,98,0.00,,,0.01,Wunderground v.1.15,2013-03-09 01:57:00,
2013-03-08 18:03:00,35.6,35.1,30.17,ESE,109,2.0,3.0,98,0.00,,,0.01,Wunderground v.1.15,2013-03-09 02:03:00,
2013-03-08 18:08:00,35.5,35.0,30.18,ESE,109,0.0,3.0,98,0.00,,,0.01,Wunderground v.1.15,2013-03-09 02:08:00,
2013-03-08 18:13:00,35.5,35.0,30.18,ESE,109,0.0,1.0,98,0.00,,,0.01,Wunderground v.1.15,2013-03-09 02:13:00,
2013-03-08 18:18:00,35.3,34.8,30.18,ESE,109,0.0,1.0,98,0.00,,,0.01,Wunderground v.1.15,2013-03-09 02:18:00,
2013-03-08 18:23:00,35.2,34.7,30.18,ESE,109,0.0,0.0,98,0.00,,,0.01,Wunderground v.1.15,2013-03-09 02:23:00,
2013-03-08 18:28:00,35.1,34.6,30.18,ESE,109,0.0,1.0,98,0.00,,,0.01,Wunderground v.1.15,2013-03-09 02:28:00,
2013-03-08 18:33:00,35.2,34.7,30.18,ESE,109,3.0,3.0,98,0.00,,,0.01,Wunderground v.1.15,2013-03-09 02:33:00,
2013-03-08 18:38:00,35.2,34.7,30.18,ESE,109,2.0,3.0,98,0.00,,,0.01,Wunderground v.1.15,2013-03-09 02:38:00,
2013-03-08 18:43:00,35.2,34.7,30.18,ESE,109,2.0,3.0,98,0.00,,,0.01,Wunderground v.1.15,2013-03-09 02:43:00,
2013-03-08 18:49:00,35.1,34.6,30.19,ESE,109,3.0,4.0,98,0.00,,,0.01,Wunderground v.1.15,2013-03-09 02:49:00,
2013-03-08 18:54:00,35.2,34.7,30.19,SE,136,4.0,4.0,98,0.00,,,0.01,Wunderground v.1.15,2013-03-09 02:54:00,
2013-03-08 18:59:00,35.3,34.8,30.19,SE,136,2.0,5.0,98,0.00,,,0.01,Wunderground v.1.15,2013-03-09 02:59:00,
2013-03-08 19:04:00,35.4,34.9,30.19,SE,136,2.0,3.0,98,0.00,,,0.01,Wunderground v.1.15,2013-03-09 03:04:00,
2013-03-08 19:09:00,35.4,34.9,30.20,SE,136,0.0,3.0,98,0.00,,,0.01,Wunderground v.1.15,2013-03-09 03:09:00,
2013-03-08 19:14:00,35.1,34.6,30.20,SE,136,0.0,2.0,98,0.00,,,0.01,Wunderground v.1.15,2013-03-09 03:14:00,
2013-03-08 19:19:00,34.9,34.4,30.20,SE,136,0.0,2.0,98,0.00,,,0.01,Wunderground v.1.15,2013-03-09 03:19:00,
2013-03-08 19:24:00,34.8,34.3,30.20,SE,136,0.0,0.0,98,0.00,,,0.01,Wunderground v.1.15,2013-03-09 03:24:00,
2013-03-08 19:29:00,34.7,34.2,30.20,SE,136,2.0,2.0,98,0.00,,,0.01,Wunderground v.1.15,2013-03-09 03:29:00,
2013-03-08 19:34:00,34.7,34.2,30.21,SE,136,0.0,2.0,98,0.00,,,0.01,Wunderground v.1.15,2013-03-09 03:34:00,
2013-03-08 19:40:00,34.7,34.2,30.21,SE,136,2.0,2.0,98,0.00,,,0.01,Wunderground v.1.15,2013-03-09 03:40:00,
2013-03-08 19:45:00,34.7,34.2,30.21,SE,136,0.0,2.0,98,0.00,,,0.01,Wunderground v.1.15,2013-03-09 03:45:00,
2013-03-08 19:50:00,34.7,34.2,30.21,SE,136,0.0,0.0,98,0.00,,,0.01,Wunderground v.1.15,2013-03-09 03:50:00,
2013-03-08 19:55:00,34.5,34.0,30.21,SE,136,0.0,0.0,98,0.00,,,0.01,Wunderground v.1.15,2013-03-09 03:55:00,
2013-03-08 20:00:00,34.5,34.0,30.21,SE,136,0.0,0.0,98,0.00,,,0.01,Wunderground v.1.15,2013-03-09 04:00:00,
2013-03-08 20:05:00,34.5,34.0,30.21,SE,136,0.0,0.0,98,0.00,,,0.01,Wunderground v.1.15,2013-03-09 04:05:00,
2013-03-08 20:10:00,34.4,33.9,30.21,SE,136,0.0,0.0,98,0.00,,,0.01,Wunderground v.1.15,2013-03-09 04:10:00,
2013-03-08 20:15:00,34.3,33.8,30.22,SE,136,0.0,0.0,98,0.00,,,0.01,Wunderground v.1.15,2013-03-09 04:15:00,
2013-03-08 20:20:00,34.2,33.7,30.22,SE,136,0.0,0.0,98,0.00,,,0.01,Wunderground v.1.15,2013-03-09 04:20:00,
2013-03-08 20:25:00,34.3,33.8,30.22,SE,136,0.0,0.0,98,0.00,,,0.01,Wunderground v.1.15,2013-03-09 04:25:00,
2013-03-08 20:30:00,34.5,34.0,30.22,SE,136,0.0,0.0,98,0.00,,,0.01,Wunderground v.1.15,2013-03-09 04:30:00,
2013-03-08 20:35:00,34.5,34.0,30.22,SE,136,0.0,0.0,98,0.00,,,0.01,Wunderground v.1.15,2013-03-09 04:35:00,
2013-03-08 20:40:00,34.6,34.1,30.22,SE,136,0.0,0.0,98,0.00,,,0.01,Wunderground v.1.15,2013-03-09 04:40:00,
2013-03-08 20:45:00,34.4,33.9,30.22,SE,136,0.0,0.0,98,0.00,,,0.01,Wunderground v.1.15,2013-03-09 04:45:00,
2013-03-08 20:50:00,34.3,33.8,30.22,SE,136,0.0,0.0,98,0.00,,,0.01,Wunderground v.1.15,2013-03-09 04:50:00,
2013-03-08 20:56:00,34.3,33.8,30.22,SE,136,2.0,2.0,98,0.00,,,0.01,Wunderground v.1.15,2013-03-09 04:56:00,
2013-03-08 21:00:00,34.7,34.2,30.22,SE,138,4.0,4.0,98,0.00,,,0.01,Wunderground v.1.15,2013-03-09 05:00:00,
2013-03-08 21:01:00,34.7,34.2,30.22,SE,138,4.0,4.0,98,0.00,,,0.01,Wunderground v.1.15,2013-03-09 05:01:00,
2013-03-08 21:06:00,34.9,34.4,30.22,SSE,154,4.0,5.0,98,0.00,,,0.01,Wunderground v.1.15,2013-03-09 05:06:00,
2013-03-08 21:11:00,34.9,34.1,30.22,SSE,154,2.0,4.0,97,0.00,,,0.01,Wunderground v.1.15,2013-03-09 05:11:00,
2013-03-08 21:16:00,34.8,34.0,30.23,SSE,154,2.0,4.0,97,0.00,,,0.01,Wunderground v.1.15,2013-03-09 05:16:00,
2013-03-08 21:21:00,34.7,33.9,30.23,SSE,154,0.0,2.0,97,0.00,,,0.01,Wunderground v.1.15,2013-03-09 05:21:00,
2013-03-08 21:26:00,34.4,33.4,30.23,SSE,154,2.0,3.0,96,0.00,,,0.01,Wunderground v.1.15,2013-03-09 05:26:00,
2013-03-08 21:31:00,34.5,33.7,30.23,SSE,154,3.0,4.0,97,0.00,,,0.01,Wunderground v.1.15,2013-03-09 05:31:00,
2013-03-08 21:36:00,34.6,33.8,30.23,SSE,154,0.0,4.0,97,0.00,,,0.01,Wunderground v.1.15,2013-03-09 05:36:00,
2013-03-08 21:41:00,34.4,33.4,30.23,SSE,154,0.0,2.0,96,0.00,,,0.01,Wunderground v.1.15,2013-03-09 05:41:00,
2013-03-08 21:46:00,34.3,33.3,30.23,SSE,154,0.0,2.0,96,0.00,,,0.01,Wunderground v.1.15,2013-03-09 05:46:00,
2013-03-08 21:51:00,34.4,33.6,30.23,SSE,154,3.0,3.0,97,0.00,,,0.01,Wunderground v.1.15,2013-03-09 05:51:00,
2013-03-08 21:57:00,34.5,33.7,30.23,SSE,154,3.0,4.0,97,0.00,,,0.01,Wunderground v.1.15,2013-03-09 05:57:00,
2013-03-08 22:02:00,34.3,33.5,30.23,SSE,154,0.0,4.0,97,0.00,,,0.01,Wunderground v.1.15,2013-03-09 06:02:00,
2013-03-08 22:07:00,34.0,33.0,30.23,SSE,153,2.0,4.0,96,0.00,,,0.01,Wunderground v.1.15,2013-03-09 06:07:00,
2013-03-08 22:12:00,33.9,33.1,30.23,SSE,153,0.0,2.0,97,0.00,,,0.01,Wunderground v.1.15,2013-03-09 06:12:00,
2013-03-08 22:17:00,34.2,33.4,30.23,SSE,153,3.0,4.0,97,0.00,,,0.01,Wunderground v.1.15,2013-03-09 06:17:00,
2013-03-08 22:22:00,34.3,33.5,30.24,SSE,153,0.0,2.0,97,0.00,,,0.01,Wunderground v.1.15,2013-03-09 06:22:00,
2013-03-08 22:27:00,34.1,33.1,30.24,SSE,153,0.0,2.0,96,0.00,,,0.01,Wunderground v.1.15,2013-03-09 06:27:00,
2013-03-08 22:32:00,33.9,32.9,30.24,SSE,153,3.0,3.0,96,0.00,,,0.01,Wunderground v.1.15,2013-03-09 06:32:00,
2013-03-08 22:37:00,34.0,33.2,30.24,SSW,192,5.0,5.0,97,0.00,,,0.01,Wunderground v.1.15,2013-03-09 06:37:00,
2013-03-08 22:42:00,34.0,33.2,30.24,South,191,1.0,3.0,97,0.00,,,0.01,Wunderground v.1.15,2013-03-09 06:42:00,
2013-03-08 22:47:00,34.0,33.2,30.24,South,191,4.0,5.0,97,0.00,,,0.01,Wunderground v.1.15,2013-03-09 06:47:00,
2013-03-08 22:52:00,33.9,33.1,30.24,South,191,2.0,5.0,97,0.00,,,0.01,Wunderground v.1.15,2013-03-09 06:52:00,
2013-03-08 22:57:00,33.7,32.9,30.24,South,191,0.0,5.0,97,0.00,,,0.01,Wunderground v.1.15,2013-03-09 06:57:00,
2013-03-08 23:02:00,33.5,32.7,30.25,South,191,1.0,2.0,97,0.00,,,0.01,Wunderground v.1.15,2013-03-09 07:02:00,
2013-03-08 23:07:00,33.5,32.7,30.24,South,191,0.0,2.0,97,0.00,,,0.01,Wunderground v.1.15,2013-03-09 07:07:00,
2013-03-08 23:12:00,33.5,32.7,30.24,South,191,0.0,0.0,97,0.00,,,0.01,Wunderground v.1.15,2013-03-09 07:12:00,
2013-03-08 23:17:00,33.3,32.5,30.24,South,191,0.0,0.0,97,0.00,,,0.01,Wunderground v.1.15,2013-03-09 07:17:00,
2013-03-08 23:22:00,33.2,32.4,30.25,South,191,0.0,0.0,97,0.00,,,0.01,Wunderground v.1.15,2013-03-09 07:22:00,
2013-03-08 23:27:00,33.1,32.3,30.25,South,191,0.0,1.0,97,0.00,,,0.01,Wunderground v.1.15,2013-03-09 07:27:00,
2013-03-08 23:32:00,33.1,32.3,30.25,South,191,0.0,0.0,97,0.00,,,0.01,Wunderground v.1.15,2013-03-09 07:32:00,
2013-03-08 23:37:00,33.1,32.3,30.25,South,191,1.0,2.0,97,0.00,,,0.01,Wunderground v.1.15,2013-03-09 07:37:00,
2013-03-08 23:42:00,33.1,32.3,30.25,South,191,0.0,2.0,97,0.00,,,0.01,Wunderground v.1.15,2013-03-09 07:42:00,
2013-03-08 23:47:00,33.0,32.2,30.25,South,191,3.0,3.0,97,0.00,,,0.01,Wunderground v.1.15,2013-03-09 07:47:00,
2013-03-08 23:53:00,33.0,32.2,30.25,South,191,2.0,3.0,97,0.00,,,0.01,Wunderground v.1.15,2013-03-09 07:53:00,
2013-03-08 23:58:00,33.0,32.2,30.25,SW,215,0.0,3.0,97,0.00,,,0.01,Wunderground v.1.15,2013-03-09 07:58:00,